Neufchateau, Belgium
Current Conditions -  °F | °C
As of 9:20 PM on Monday 22 Dec 2014 (Local Time) from ELLX Reporting Station
Drizzle Drizzle  
Wind Chill: 36°   Ceiling: 400
Heat Index: 43°   Visibility: 2.5mi
Dew Point: 43°   Wind: 13mph
Humidity: 100%   Direction: 220°SW
Pressure: 30.24"   Gusts: NA
Location:  49.84°N, 5.44°E
Report Text: ELLX 222020Z 22011KT 190V270 4000 -DZ BKN004 06/06 Q1024 NOSIG
Loading
Personal Weather Stations






























Interactive Weather Map New forecast layout! Learn more

10-Day Weather Forecast

Advertisements
Track Severe Weather on mobile